createdAt,value
2023-04-18T00:00:10.667Z,101312.86
2023-04-18T00:05:33.314Z,101316.98
2023-04-18T00:10:36.098Z,101312.79
2023-04-18T00:15:38.940Z,101304.96
2023-04-18T00:20:41.821Z,101309.27
2023-04-18T00:25:44.601Z,101308.54
2023-04-18T00:30:47.418Z,101306.27
2023-04-18T00:35:50.287Z,101308.50
2023-04-18T00:40:53.061Z,101311.08
2023-04-18T00:45:57.263Z,101310.69
2023-04-18T00:51:00.740Z,101310.01
2023-04-18T00:56:04.954Z,101309.34
2023-04-18T01:01:08.025Z,101309.33
2023-04-18T01:06:10.894Z,101314.52
2023-04-18T01:11:13.663Z,101314.34
2023-04-18T01:16:16.465Z,101314.67
2023-04-18T01:21:20.470Z,101310.81
2023-04-18T01:26:23.334Z,101307.84
2023-04-18T01:31:26.235Z,101308.52
2023-04-18T01:36:29.154Z,101311.77
2023-04-18T01:41:33.094Z,101319.08
2023-04-18T01:46:36.740Z,101321.20
2023-04-18T01:51:39.573Z,101326.45
2023-04-18T01:56:42.445Z,101322.52
2023-04-18T02:01:45.270Z,101324.45
2023-04-18T02:06:48.142Z,101324.63
2023-04-18T02:11:51.071Z,101322.91
2023-04-18T02:16:53.891Z,101322.92
2023-04-18T02:21:56.742Z,101324.31
2023-04-18T02:26:59.495Z,101321.84
2023-04-18T02:32:02.342Z,101320.26
2023-04-18T02:37:05.297Z,101316.80
2023-04-18T02:42:08.075Z,101314.70
2023-04-18T02:47:10.880Z,101311.23
2023-04-18T02:52:14.857Z,101313.79
2023-04-18T02:57:17.733Z,101312.39
2023-04-18T03:02:21.147Z,101314.80
2023-04-18T03:07:24.128Z,101316.87
2023-04-18T03:12:26.928Z,101313.05
2023-04-18T03:17:29.761Z,101313.05
2023-04-18T03:22:32.556Z,101321.35
2023-04-18T03:27:35.734Z,101318.41
2023-04-18T03:32:38.746Z,101316.38
2023-04-18T03:37:41.514Z,101316.55
2023-04-18T03:42:44.400Z,101320.65
2023-04-18T03:47:47.255Z,101323.50
2023-04-18T03:52:50.022Z,101319.73
2023-04-18T03:57:52.815Z,101317.32
2023-04-18T04:02:55.836Z,101321.66
2023-04-18T04:07:58.865Z,101327.57
2023-04-18T04:13:01.663Z,101326.78
2023-04-18T04:18:06.289Z,101330.13
2023-04-18T04:23:10.143Z,101330.17
2023-04-18T04:28:13.779Z,101330.91
2023-04-18T04:33:20.819Z,101329.70
2023-04-18T04:38:23.593Z,101334.02
2023-04-18T04:43:28.903Z,101341.33
2023-04-18T04:48:31.708Z,101343.23
2023-04-18T04:53:34.635Z,101347.20
2023-04-18T04:58:37.449Z,101350.48
2023-04-18T05:03:40.526Z,101355.52
2023-04-18T05:08:43.531Z,101359.00
2023-04-18T05:13:46.325Z,101358.83
2023-04-18T05:18:49.052Z,101361.25
2023-04-18T05:23:51.930Z,101365.60
2023-04-18T05:28:55.020Z,101367.16
2023-04-18T05:33:57.750Z,101369.24
2023-04-18T05:39:02.902Z,101365.57
2023-04-18T05:44:07.086Z,101363.89
2023-04-18T05:49:10.720Z,101365.95
2023-04-18T05:54:13.801Z,101360.35
2023-04-18T05:59:17.550Z,101360.86
2023-04-18T06:04:21.477Z,101358.20
2023-04-18T06:09:24.509Z,101357.69
2023-04-18T06:14:28.432Z,101354.67
2023-04-18T06:19:36.002Z,101350.70
2023-04-18T06:24:42.523Z,101348.70
2023-04-18T06:29:45.660Z,101365.20
2023-04-18T06:34:49.719Z,101362.48
2023-04-18T06:39:56.146Z,101358.70
2023-04-18T06:44:59.805Z,101373.52
2023-04-18T06:50:06.127Z,101380.84
2023-04-18T06:55:10.002Z,101427.25
2023-04-18T07:00:13.739Z,101443.15
2023-04-18T07:05:17.437Z,101430.64
2023-04-18T07:10:21.347Z,101404.27
2023-04-18T07:15:31.153Z,101391.52
2023-04-18T07:20:40.467Z,101386.86
2023-04-18T07:25:43.373Z,101377.20
2023-04-18T07:30:46.217Z,101391.05
2023-04-18T07:35:50.705Z,101415.75
2023-04-18T07:41:02.712Z,101439.25
2023-04-18T07:46:07.049Z,101439.52
2023-04-18T07:51:11.605Z,101447.70
2023-04-18T07:56:15.565Z,101393.75
2023-04-18T08:01:20.970Z,101352.25
2023-04-18T08:06:27.220Z,101361.82
2023-04-18T08:11:30.454Z,101352.40
2023-04-18T08:16:33.432Z,101353.16
2023-04-18T08:21:37.353Z,101347.56
2023-04-18T08:26:40.520Z,101341.20
2023-04-18T08:31:43.456Z,101344.39
2023-04-18T08:36:46.371Z,101349.31
2023-04-18T08:41:57.355Z,101347.74
2023-04-18T08:47:02.096Z,101342.30
2023-04-18T08:52:14.064Z,101341.34
2023-04-18T08:57:18.416Z,101335.88
2023-04-18T09:02:23.542Z,101337.52
2023-04-18T09:07:30.507Z,101322.73
2023-04-18T09:12:42.462Z,101316.09
2023-04-18T09:17:51.073Z,101314.91
2023-04-18T09:23:00.837Z,101312.99
2023-04-18T09:28:27.088Z,101318.48
2023-04-18T09:33:34.538Z,101312.93
2023-04-18T09:38:41.396Z,101315.72
2023-04-18T09:43:45.782Z,101313.54
2023-04-18T09:48:53.238Z,101306.55
2023-04-18T09:53:56.529Z,101308.25
2023-04-18T09:59:07.347Z,101303.40
2023-04-18T10:04:12.131Z,101306.09
2023-04-18T10:09:16.476Z,101303.72
2023-04-18T10:14:20.122Z,101296.77
2023-04-18T10:19:28.681Z,101293.73
2023-04-18T10:24:57.072Z,101289.02
2023-04-18T10:29:59.970Z,101284.87
2023-04-18T10:35:05.472Z,101274.24
2023-04-18T10:40:10.566Z,101269.52
2023-04-18T10:45:26.860Z,101264.94
2023-04-18T10:50:29.927Z,101269.41
2023-04-18T10:55:35.872Z,101275.05
2023-04-18T11:00:40.522Z,101275.00
2023-04-18T11:05:46.447Z,101268.00
2023-04-18T11:11:03.202Z,101267.61
2023-04-18T11:16:08.740Z,101265.83
2023-04-18T11:21:43.385Z,101252.48
2023-04-18T11:26:46.288Z,101241.54
2023-04-18T11:31:55.263Z,101233.52
2023-04-18T11:37:00.634Z,101236.52
2023-04-18T11:42:03.920Z,101228.58
2023-04-18T11:47:34.983Z,101218.88
2023-04-18T11:52:40.354Z,101218.32
2023-04-18T11:57:49.392Z,101224.33
2023-04-18T12:02:57.437Z,101221.05
2023-04-18T12:08:17.355Z,101214.24
2023-04-18T12:13:26.943Z,101215.33
2023-04-18T12:18:42.739Z,101205.05
2023-04-18T12:30:42.725Z,101202.76
2023-04-18T12:35:48.391Z,101201.58
2023-04-18T12:40:52.593Z,101198.45
2023-04-18T12:46:03.353Z,101193.63
2023-04-18T12:51:07.188Z,101185.77
2023-04-18T12:56:10.018Z,101189.70
2023-04-18T13:01:18.064Z,101188.66
2023-04-18T13:06:21.530Z,101170.33
2023-04-18T13:11:28.519Z,101163.01
2023-04-18T13:16:31.843Z,101174.09
2023-04-18T13:21:35.168Z,101167.65
2023-04-18T13:26:40.197Z,101170.16
2023-04-18T13:31:43.243Z,101164.81
2023-04-18T13:36:46.077Z,101163.82
2023-04-18T13:41:50.795Z,101162.05
2023-04-18T13:46:53.732Z,101161.39
2023-04-18T13:51:59.367Z,101169.69
2023-04-18T13:57:04.024Z,101165.58
2023-04-18T14:02:08.719Z,101165.34
2023-04-18T14:07:14.552Z,101164.73
2023-04-18T14:12:48.665Z,101164.30
2023-04-18T14:17:51.880Z,101158.80
2023-04-18T14:22:54.759Z,101157.45
2023-04-18T14:28:08.155Z,101151.39
2023-04-18T14:33:11.114Z,101153.14
2023-04-18T14:38:13.927Z,101163.44
2023-04-18T14:43:16.926Z,101162.12
2023-04-18T14:48:22.243Z,101162.40
2023-04-18T14:53:25.398Z,101162.15
2023-04-18T14:58:28.257Z,101164.67
2023-04-18T15:03:31.496Z,101164.13
2023-04-18T15:08:35.146Z,101162.02
2023-04-18T15:13:40.452Z,101164.41
2023-04-18T15:18:44.059Z,101171.27
2023-04-18T15:23:46.947Z,101166.80
2023-04-18T15:28:50.233Z,101169.48
2023-04-18T15:33:53.033Z,101166.41
2023-04-18T15:38:56.080Z,101169.03
2023-04-18T15:43:58.873Z,101167.08
2023-04-18T15:49:01.771Z,101164.78
2023-04-18T15:54:04.700Z,101165.45
2023-04-18T15:59:13.935Z,101168.10
2023-04-18T16:04:19.088Z,101161.75
2023-04-18T16:09:22.464Z,101161.02
2023-04-18T16:14:25.376Z,101157.95
2023-04-18T16:19:28.312Z,101154.36
2023-04-18T16:24:31.262Z,101151.95
2023-04-18T16:29:34.830Z,101149.30
2023-04-18T16:34:37.675Z,101145.88
2023-04-18T16:39:40.814Z,101142.63
2023-04-18T16:44:47.205Z,101142.18
2023-04-18T16:49:52.145Z,101138.48
2023-04-18T16:54:55.117Z,101133.95
2023-04-18T16:59:58.722Z,101137.91
2023-04-18T17:05:02.752Z,101140.73
2023-04-18T17:10:08.807Z,101138.95
2023-04-18T17:15:13.430Z,101139.27
2023-04-18T17:20:17.909Z,101137.65
2023-04-18T17:25:21.234Z,101144.27
2023-04-18T17:30:24.405Z,101145.99
2023-04-18T17:35:27.439Z,101146.88
2023-04-18T17:40:31.322Z,101149.98
2023-04-18T17:45:34.566Z,101153.63
2023-04-18T17:50:42.984Z,101157.08
2023-04-18T17:55:48.997Z,101161.63
2023-04-18T18:00:53.037Z,101164.21
2023-04-18T18:05:56.244Z,101170.30
2023-04-18T18:11:01.727Z,101174.84
2023-04-18T18:16:05.891Z,101174.45
2023-04-18T18:21:08.798Z,101171.09
2023-04-18T18:26:12.456Z,101169.15
2023-04-18T18:31:15.262Z,101167.73
2023-04-18T18:36:18.112Z,101168.93
2023-04-18T18:41:24.594Z,101163.95
2023-04-18T18:46:27.833Z,101158.27
2023-04-18T18:51:31.087Z,101158.19
2023-04-18T18:56:33.851Z,101155.67
2023-04-18T19:01:37.086Z,101155.27
2023-04-18T19:06:40.337Z,101153.95
2023-04-18T19:11:43.082Z,101152.63
2023-04-18T19:16:45.980Z,101143.44
2023-04-18T19:21:48.772Z,101141.73
2023-04-18T19:26:51.587Z,101138.16
2023-04-18T19:31:54.409Z,101135.42
2023-04-18T19:36:57.458Z,101130.76
2023-04-18T19:42:02.000Z,101128.02
2023-04-18T19:47:04.885Z,101119.94
2023-04-18T19:52:07.802Z,101118.11
2023-04-18T19:57:10.629Z,101113.48
2023-04-18T20:02:15.143Z,101110.91
2023-04-18T20:07:18.006Z,101115.16
2023-04-18T20:12:21.075Z,101106.14
2023-04-18T20:17:23.858Z,101101.13
2023-04-18T20:22:26.920Z,101095.97
2023-04-18T20:27:29.741Z,101099.27
2023-04-18T20:32:33.582Z,101097.55
2023-04-18T20:37:36.758Z,101090.95
2023-04-18T20:42:39.913Z,101088.14
2023-04-18T20:47:43.288Z,101086.74
2023-04-18T20:52:49.190Z,101084.46
2023-04-18T20:57:52.024Z,101079.59
2023-04-18T21:02:54.980Z,101080.23
2023-04-18T21:07:59.813Z,101080.88
2023-04-18T21:13:02.595Z,101075.64
2023-04-18T21:18:05.533Z,101069.17
2023-04-18T21:23:08.413Z,101068.77
2023-04-18T21:28:12.462Z,101065.98
2023-04-18T21:33:15.236Z,101060.77
2023-04-18T21:38:18.116Z,101065.77
2023-04-18T21:43:20.983Z,101063.51
2023-04-18T21:48:23.742Z,101057.42
2023-04-18T21:53:26.512Z,101053.24
2023-04-18T21:58:29.785Z,101050.58
2023-04-18T22:03:34.224Z,101046.31
2023-04-18T22:08:37.197Z,101041.07
2023-04-18T22:13:40.196Z,101038.75
2023-04-18T22:18:43.015Z,101036.62
2023-04-18T22:23:45.944Z,101032.27
2023-04-18T22:28:48.710Z,101032.45
2023-04-18T22:33:51.516Z,101022.58
2023-04-18T22:38:54.354Z,101011.65
2023-04-18T22:43:57.081Z,101006.72
2023-04-18T22:48:59.864Z,101009.41
2023-04-18T22:54:02.670Z,101005.89
2023-04-18T22:59:05.407Z,101002.19
2023-04-18T23:04:08.454Z,100992.67
2023-04-18T23:09:11.453Z,100987.14
2023-04-18T23:14:17.416Z,100984.00
2023-04-18T23:19:20.235Z,100979.96
2023-04-18T23:24:23.115Z,100970.27
2023-04-18T23:29:25.914Z,100968.72
2023-04-18T23:34:28.710Z,100962.52
2023-04-18T23:39:31.490Z,100946.14
2023-04-18T23:44:34.294Z,100942.16
2023-04-18T23:49:37.071Z,100934.02
2023-04-18T23:54:39.869Z,100923.27
2023-04-18T23:59:42.645Z,100919.12
